createdAt,value
2022-11-05T00:00:58.826Z,13.10
2022-11-05T00:03:45.581Z,13.10
2022-11-05T00:06:32.518Z,13.20
2022-11-05T00:09:19.298Z,13.20
2022-11-05T00:12:05.932Z,13.20
2022-11-05T00:14:52.745Z,13.20
2022-11-05T00:17:21.209Z,13.20
2022-11-05T00:19:49.593Z,13.20
2022-11-05T00:22:36.129Z,13.20
2022-11-05T00:25:19.824Z,13.30
2022-11-05T00:27:53.396Z,13.30
2022-11-05T00:30:25.178Z,13.30
2022-11-05T00:32:54.193Z,13.30
2022-11-05T00:35:24.294Z,13.30
2022-11-05T00:37:54.839Z,13.30
2022-11-05T00:40:23.273Z,13.30
2022-11-05T00:43:10.267Z,13.30
2022-11-05T00:45:39.045Z,13.30
2022-11-05T00:48:26.134Z,13.30
2022-11-05T00:50:54.665Z,13.40
2022-11-05T00:53:23.037Z,13.40
2022-11-05T00:55:51.388Z,13.40
2022-11-05T00:58:22.150Z,13.40
2022-11-05T01:00:53.095Z,13.40
2022-11-05T01:03:24.096Z,13.40
2022-11-05T01:06:06.462Z,13.40
2022-11-05T01:08:34.954Z,13.40
2022-11-05T01:11:11.467Z,13.50
2022-11-05T01:13:41.158Z,13.50
2022-11-05T01:16:11.371Z,13.50
2022-11-05T01:18:41.100Z,13.50
2022-11-05T01:21:14.866Z,13.50
2022-11-05T01:23:43.674Z,13.50
2022-11-05T01:26:12.061Z,13.50
2022-11-05T01:28:40.602Z,13.50
2022-11-05T01:31:09.028Z,13.50
2022-11-05T01:33:37.442Z,13.50
2022-11-05T01:36:06.729Z,13.50
2022-11-05T01:38:35.287Z,13.50
2022-11-05T01:41:03.623Z,13.50
2022-11-05T01:43:47.806Z,13.50
2022-11-05T01:46:19.368Z,13.60
2022-11-05T01:48:50.620Z,13.50
2022-11-05T01:51:23.313Z,13.60
2022-11-05T01:54:10.319Z,13.50
2022-11-05T01:56:47.375Z,13.60
2022-11-05T01:59:25.320Z,13.60
2022-11-05T02:01:54.823Z,13.60
2022-11-05T02:04:36.433Z,13.60
2022-11-05T02:07:07.023Z,13.60
2022-11-05T02:09:58.567Z,13.60
2022-11-05T02:12:30.027Z,13.60
2022-11-05T02:15:00.276Z,13.60
2022-11-05T02:18:12.515Z,13.60
2022-11-05T02:20:51.806Z,13.50
2022-11-05T02:23:38.870Z,13.60
2022-11-05T02:26:46.610Z,13.50
2022-11-05T02:29:33.426Z,13.60
2022-11-05T02:32:29.034Z,13.50
2022-11-05T02:35:10.585Z,13.50
2022-11-05T02:37:55.236Z,13.50
2022-11-05T02:40:42.323Z,13.50
2022-11-05T02:43:29.664Z,13.60
2022-11-05T02:46:16.285Z,13.50
2022-11-05T02:49:03.381Z,13.60
2022-11-05T02:51:52.484Z,13.50
2022-11-05T02:54:52.633Z,13.60
2022-11-05T02:57:25.228Z,13.60
2022-11-05T03:00:41.616Z,13.50
2022-11-05T03:03:37.486Z,13.50
2022-11-05T03:06:24.440Z,13.50
2022-11-05T03:09:15.224Z,13.50
2022-11-05T03:12:06.657Z,13.50
2022-11-05T03:14:40.780Z,13.50
2022-11-05T03:17:30.847Z,13.50
2022-11-05T03:20:20.083Z,13.40
2022-11-05T03:23:11.837Z,13.50
2022-11-05T03:25:57.643Z,13.40
2022-11-05T03:28:28.381Z,13.50
2022-11-05T03:30:59.400Z,13.50
2022-11-05T03:33:32.089Z,13.50
2022-11-05T03:36:06.204Z,13.50
2022-11-05T03:38:38.681Z,13.50
2022-11-05T03:41:10.960Z,13.50
2022-11-05T03:43:43.158Z,13.50
2022-11-05T03:46:17.758Z,13.50
2022-11-05T03:48:53.718Z,13.50
2022-11-05T03:51:40.697Z,13.50
2022-11-05T03:54:11.713Z,13.50
2022-11-05T03:56:43.317Z,13.50
2022-11-05T03:59:13.204Z,13.50
2022-11-05T04:01:43.616Z,13.50
2022-11-05T04:04:12.243Z,13.50
2022-11-05T04:06:59.030Z,13.50
2022-11-05T04:09:45.607Z,13.40
2022-11-05T04:12:32.617Z,13.50
2022-11-05T04:15:01.033Z,13.40
2022-11-05T04:17:29.506Z,13.40
2022-11-05T04:20:16.400Z,13.40
2022-11-05T04:23:03.025Z,13.40
2022-11-05T04:25:31.443Z,13.40
2022-11-05T04:28:02.610Z,13.40
2022-11-05T04:30:31.031Z,13.30
2022-11-05T04:33:14.218Z,13.30
2022-11-05T04:35:48.336Z,13.20
2022-11-05T04:38:20.227Z,13.20
2022-11-05T04:40:49.151Z,13.10
2022-11-05T04:43:20.403Z,13.10
2022-11-05T04:45:49.347Z,13.10
2022-11-05T04:48:17.696Z,13.10
2022-11-05T04:50:46.057Z,13.10
2022-11-05T04:53:14.537Z,13.10
2022-11-05T04:55:42.935Z,13.00
2022-11-05T04:58:11.313Z,13.10
2022-11-05T05:00:39.755Z,13.00
2022-11-05T05:03:08.442Z,13.10
2022-11-05T05:05:37.203Z,13.10
2022-11-05T05:08:06.954Z,13.10
2022-11-05T05:10:36.112Z,13.10
2022-11-05T05:13:04.486Z,13.10
2022-11-05T05:15:32.962Z,13.10
2022-11-05T05:18:01.411Z,13.10
2022-11-05T05:20:48.343Z,13.10
2022-11-05T05:23:16.717Z,13.20
2022-11-05T05:25:45.053Z,13.20
2022-11-05T05:28:13.440Z,13.20
2022-11-05T05:30:41.874Z,13.20
2022-11-05T05:33:10.733Z,13.20
2022-11-05T05:35:39.477Z,13.20
2022-11-05T05:38:07.809Z,13.20
2022-11-05T05:40:36.415Z,13.20
2022-11-05T05:43:04.855Z,13.20
2022-11-05T05:45:33.248Z,13.30
2022-11-05T05:48:01.694Z,13.30
2022-11-05T05:50:30.104Z,13.20
2022-11-05T05:52:58.778Z,13.20
2022-11-05T05:55:27.173Z,13.20
2022-11-05T05:57:55.749Z,13.30
2022-11-05T06:00:24.100Z,13.30
2022-11-05T06:02:52.602Z,13.30
2022-11-05T06:05:21.081Z,13.30
2022-11-05T06:07:57.253Z,13.30
2022-11-05T06:10:26.706Z,13.40
2022-11-05T06:12:55.153Z,13.30
2022-11-05T06:15:23.502Z,13.40
2022-11-05T06:17:51.996Z,13.40
2022-11-05T06:20:20.357Z,13.40
2022-11-05T06:22:58.805Z,13.50
2022-11-05T06:25:27.967Z,13.50
2022-11-05T06:27:56.508Z,13.50
2022-11-05T06:30:24.969Z,13.50
2022-11-05T06:32:53.348Z,13.50
2022-11-05T06:35:21.669Z,13.50
2022-11-05T06:37:50.116Z,13.60
2022-11-05T06:40:18.547Z,13.60
2022-11-05T06:42:46.923Z,13.60
2022-11-05T06:45:15.400Z,13.70
2022-11-05T06:47:43.796Z,13.60
2022-11-05T06:50:12.462Z,13.70
2022-11-05T06:52:41.380Z,13.60
2022-11-05T06:55:10.290Z,13.70
2022-11-05T06:57:39.598Z,13.70
2022-11-05T07:00:09.082Z,13.60
2022-11-05T07:02:37.475Z,13.70
2022-11-05T07:05:06.043Z,13.70
2022-11-05T07:07:37.986Z,13.70
2022-11-05T07:10:08.371Z,13.80
2022-11-05T07:12:36.849Z,13.80
2022-11-05T07:15:05.845Z,13.80
2022-11-05T07:17:34.701Z,13.80
2022-11-05T07:20:03.080Z,13.80
2022-11-05T07:22:31.491Z,13.80
2022-11-05T07:24:59.895Z,13.80
2022-11-05T07:27:28.284Z,13.80
2022-11-05T07:29:56.668Z,13.80
2022-11-05T07:32:25.095Z,13.70
2022-11-05T07:34:53.444Z,13.60
2022-11-05T07:37:21.935Z,13.40
2022-11-05T07:39:50.247Z,13.30
2022-11-05T07:42:18.602Z,13.20
2022-11-05T07:44:47.108Z,13.00
2022-11-05T07:47:15.457Z,12.90
2022-11-05T07:49:43.791Z,12.80
2022-11-05T07:52:12.184Z,12.70
2022-11-05T07:54:40.528Z,12.50
2022-11-05T07:57:08.884Z,12.30
2022-11-05T07:59:37.352Z,12.20
2022-11-05T08:02:06.033Z,12.20
2022-11-05T08:04:34.611Z,12.10
2022-11-05T08:07:03.077Z,12.00
2022-11-05T08:09:31.425Z,12.00
2022-11-05T08:12:02.904Z,11.90
2022-11-05T08:14:31.671Z,11.80
2022-11-05T08:17:00.028Z,11.80
2022-11-05T08:19:28.380Z,11.70
2022-11-05T08:21:56.792Z,11.80
2022-11-05T08:24:25.204Z,11.50
2022-11-05T08:26:54.578Z,11.40
2022-11-05T08:29:23.067Z,11.40
2022-11-05T08:31:51.442Z,11.30
2022-11-05T08:34:19.818Z,11.10
2022-11-05T08:36:48.316Z,11.30
2022-11-05T08:39:19.465Z,10.80
2022-11-05T08:41:48.024Z,10.80
2022-11-05T08:44:16.465Z,10.60
2022-11-05T08:46:44.823Z,10.60
2022-11-05T08:49:13.242Z,10.50
2022-11-05T08:51:41.673Z,10.40
2022-11-05T08:54:10.058Z,10.30
2022-11-05T08:56:38.448Z,10.30
2022-11-05T08:59:07.527Z,10.30
2022-11-05T09:01:36.326Z,10.60
2022-11-05T09:04:04.958Z,10.20
2022-11-05T09:06:33.462Z,10.30
2022-11-05T09:09:01.904Z,10.20
2022-11-05T09:11:56.940Z,10.20
2022-11-05T09:14:18.688Z,9.90
2022-11-05T09:16:47.132Z,10.20
2022-11-05T09:19:15.528Z,10.20
2022-11-05T09:21:44.073Z,10.10
2022-11-05T09:24:12.535Z,10.10
2022-11-05T09:26:40.865Z,10.00
2022-11-05T09:29:14.085Z,10.10
2022-11-05T09:31:43.039Z,10.20
2022-11-05T09:34:11.402Z,10.10
2022-11-05T09:36:39.942Z,10.20
2022-11-05T09:39:08.330Z,9.90
2022-11-05T09:41:40.922Z,10.00
2022-11-05T09:44:19.828Z,9.90
2022-11-05T09:47:04.120Z,10.00
2022-11-05T09:49:47.666Z,10.20
2022-11-05T09:52:26.573Z,9.80
2022-11-05T09:54:56.406Z,9.80
2022-11-05T09:57:33.687Z,10.10
2022-11-05T10:00:06.412Z,9.60
2022-11-05T10:02:45.185Z,9.60
2022-11-05T10:05:15.525Z,9.60
2022-11-05T10:07:51.587Z,9.60
2022-11-05T10:10:41.301Z,9.60
2022-11-05T10:13:43.500Z,9.60
2022-11-05T10:16:30.109Z,9.80
2022-11-05T10:19:15.496Z,9.50
2022-11-05T10:22:05.632Z,9.40
2022-11-05T10:24:32.591Z,9.20
2022-11-05T10:27:01.378Z,9.10
2022-11-05T10:29:33.311Z,9.20
2022-11-05T10:32:06.352Z,9.20
2022-11-05T10:34:38.311Z,9.20
2022-11-05T10:37:07.218Z,9.30
2022-11-05T10:39:36.084Z,9.30
2022-11-05T10:42:36.305Z,9.20
2022-11-05T10:45:26.296Z,9.20
2022-11-05T10:48:10.631Z,9.20
2022-11-05T10:50:40.522Z,9.20
2022-11-05T10:53:17.398Z,9.20
2022-11-05T10:55:51.023Z,9.30
2022-11-05T10:58:21.338Z,9.10
2022-11-05T11:00:55.862Z,9.10
2022-11-05T11:03:52.534Z,9.20
2022-11-05T11:06:23.921Z,9.20
2022-11-05T11:08:53.960Z,9.20
2022-11-05T11:11:42.615Z,9.10
2022-11-05T11:14:13.900Z,9.10
2022-11-05T11:16:47.550Z,9.20
2022-11-05T11:19:35.339Z,9.00
2022-11-05T11:22:06.445Z,8.90
2022-11-05T11:25:01.156Z,9.00
2022-11-05T11:27:34.367Z,9.10
2022-11-05T11:30:05.477Z,9.00
2022-11-05T11:32:38.186Z,9.00
2022-11-05T11:35:18.999Z,9.00
2022-11-05T11:37:48.209Z,9.00
2022-11-05T11:40:21.333Z,9.00
2022-11-05T11:42:57.205Z,8.80
2022-11-05T11:45:49.061Z,9.10
2022-11-05T11:48:46.525Z,9.00
2022-11-05T11:51:49.858Z,9.20
2022-11-05T11:54:29.015Z,9.10
2022-11-05T11:56:57.598Z,9.00
2022-11-05T11:59:53.764Z,9.00
2022-11-05T12:02:47.911Z,8.90
2022-11-05T12:05:31.477Z,8.80
2022-11-05T12:08:45.328Z,8.90
2022-11-05T12:11:43.252Z,9.10
2022-11-05T12:14:41.181Z,9.00
2022-11-05T12:17:39.897Z,9.10
2022-11-05T12:20:24.422Z,9.10
2022-11-05T12:23:22.374Z,9.10
2022-11-05T12:26:01.342Z,9.10
2022-11-05T12:28:57.859Z,9.10
2022-11-05T12:31:58.648Z,9.10
2022-11-05T12:34:33.109Z,9.10
2022-11-05T12:37:04.904Z,9.00
2022-11-05T12:39:47.375Z,9.10
2022-11-05T12:42:42.283Z,9.00
2022-11-05T12:45:29.240Z,9.00
2022-11-05T12:48:26.512Z,9.20
2022-11-05T12:51:29.927Z,9.10
2022-11-05T12:54:10.380Z,9.10
2022-11-05T12:56:47.960Z,9.00
2022-11-05T12:59:16.363Z,9.10
2022-11-05T13:01:55.714Z,9.10
2022-11-05T13:04:45.717Z,9.10
2022-11-05T13:07:21.208Z,9.00
2022-11-05T13:10:02.505Z,9.00
2022-11-05T13:12:35.439Z,9.10
2022-11-05T13:15:28.057Z,9.20
2022-11-05T13:18:16.204Z,9.10
2022-11-05T13:20:50.635Z,9.00
2022-11-05T13:23:33.172Z,8.70
2022-11-05T13:26:39.933Z,9.00
2022-11-05T13:29:32.449Z,9.10
2022-11-05T13:32:24.844Z,9.20
2022-11-05T13:34:57.228Z,8.90
2022-11-05T13:37:53.670Z,9.00
2022-11-05T13:40:27.235Z,8.80
2022-11-05T13:43:14.292Z,8.80
2022-11-05T13:46:07.165Z,8.90
2022-11-05T13:48:47.393Z,8.90
2022-11-05T13:51:41.920Z,9.10
2022-11-05T13:54:28.940Z,9.10
2022-11-05T13:57:12.556Z,9.30
2022-11-05T13:59:47.195Z,8.80
2022-11-05T14:02:29.307Z,8.60
2022-11-05T14:05:01.636Z,8.70
2022-11-05T14:07:38.649Z,8.30
2022-11-05T14:10:18.348Z,8.40
2022-11-05T14:12:53.187Z,8.50
2022-11-05T14:15:33.205Z,8.50
2022-11-05T14:18:01.511Z,8.80
2022-11-05T14:20:33.108Z,8.60
2022-11-05T14:23:25.907Z,8.80
2022-11-05T14:26:12.319Z,8.80
2022-11-05T14:28:47.321Z,8.70
2022-11-05T14:31:47.186Z,8.80
2022-11-05T14:34:16.112Z,8.70
2022-11-05T14:36:46.706Z,8.90
2022-11-05T14:39:21.392Z,8.80
2022-11-05T14:42:07.638Z,8.80
2022-11-05T14:44:37.475Z,8.50
2022-11-05T14:47:22.666Z,8.70
2022-11-05T14:50:04.385Z,8.70
2022-11-05T14:52:33.595Z,8.60
2022-11-05T14:55:01.996Z,8.40
2022-11-05T14:57:45.314Z,8.70
2022-11-05T15:00:37.256Z,8.50
2022-11-05T15:03:57.622Z,8.50
2022-11-05T15:06:34.840Z,8.40
2022-11-05T15:09:28.223Z,8.30
2022-11-05T15:11:56.509Z,8.30
2022-11-05T15:14:49.674Z,8.40
2022-11-05T15:17:27.418Z,8.40
2022-11-05T15:20:00.001Z,8.50
2022-11-05T15:22:35.523Z,8.30
2022-11-05T15:25:05.927Z,8.40
2022-11-05T15:27:52.539Z,8.40
2022-11-05T15:30:23.985Z,8.40
2022-11-05T15:32:52.777Z,8.40
2022-11-05T15:35:25.621Z,8.50
2022-11-05T15:38:01.839Z,8.40
2022-11-05T15:40:34.608Z,8.40
2022-11-05T15:43:29.445Z,8.50
2022-11-05T15:46:07.184Z,8.50
2022-11-05T15:48:36.965Z,8.70
2022-11-05T15:51:05.952Z,8.70
2022-11-05T15:54:08.425Z,8.70
2022-11-05T15:56:49.979Z,8.80
2022-11-05T15:59:20.981Z,8.50
2022-11-05T16:02:07.020Z,8.50
2022-11-05T16:04:36.444Z,8.50
2022-11-05T16:07:13.029Z,8.50
2022-11-05T16:09:58.715Z,8.60
2022-11-05T16:12:36.744Z,8.70
2022-11-05T16:15:11.334Z,8.70
2022-11-05T16:17:48.669Z,8.60
2022-11-05T16:20:31.084Z,8.70
2022-11-05T16:23:02.124Z,8.70
2022-11-05T16:25:41.923Z,8.90
2022-11-05T16:28:27.276Z,9.00
2022-11-05T16:31:03.010Z,9.00
2022-11-05T16:33:47.133Z,9.10
2022-11-05T16:36:15.770Z,9.10
2022-11-05T16:38:44.149Z,9.20
2022-11-05T16:41:20.884Z,9.10
2022-11-05T16:43:53.380Z,9.20
2022-11-05T16:46:22.527Z,9.30
2022-11-05T16:48:51.054Z,9.20
2022-11-05T16:51:23.356Z,8.90
2022-11-05T16:53:54.732Z,9.10
2022-11-05T16:56:23.894Z,9.20
2022-11-05T16:58:52.253Z,9.10
2022-11-05T17:01:23.205Z,9.10
2022-11-05T17:03:53.499Z,9.10
2022-11-05T17:06:22.709Z,9.10
2022-11-05T17:08:51.135Z,9.20
2022-11-05T17:11:22.863Z,9.10
2022-11-05T17:13:52.028Z,9.40
2022-11-05T17:16:20.452Z,9.50
2022-11-05T17:18:48.864Z,9.50
2022-11-05T17:21:17.311Z,9.70
2022-11-05T17:23:45.754Z,9.50
2022-11-05T17:26:14.722Z,9.60
2022-11-05T17:28:43.367Z,9.60
2022-11-05T17:31:14.601Z,9.70
2022-11-05T17:33:43.056Z,9.60
2022-11-05T17:36:14.713Z,9.70
2022-11-05T17:38:43.618Z,9.60
2022-11-05T17:41:16.742Z,9.50
2022-11-05T17:43:45.685Z,9.50
2022-11-05T17:46:16.512Z,9.80
2022-11-05T17:48:45.766Z,9.80
2022-11-05T17:51:19.315Z,9.80
2022-11-05T17:53:49.901Z,9.80
2022-11-05T17:56:32.494Z,9.90
2022-11-05T17:59:03.168Z,9.80
2022-11-05T18:01:36.365Z,10.00
2022-11-05T18:04:08.841Z,10.10
2022-11-05T18:06:40.236Z,10.30
2022-11-05T18:09:10.296Z,10.30
2022-11-05T18:11:38.886Z,10.40
2022-11-05T18:14:07.417Z,10.50
2022-11-05T18:16:36.366Z,10.70
2022-11-05T18:19:05.518Z,10.90
2022-11-05T18:21:33.881Z,10.80
2022-11-05T18:24:06.378Z,10.90
2022-11-05T18:26:35.329Z,11.00
2022-11-05T18:29:05.214Z,11.10
2022-11-05T18:31:33.669Z,11.00
2022-11-05T18:34:02.247Z,11.20
2022-11-05T18:36:32.164Z,11.10
2022-11-05T18:39:02.582Z,11.00
2022-11-05T18:41:31.260Z,10.80
2022-11-05T18:44:03.775Z,10.90
2022-11-05T18:46:56.955Z,11.30
2022-11-05T18:49:22.161Z,11.00
2022-11-05T18:51:50.587Z,11.20
2022-11-05T18:54:18.963Z,11.40
2022-11-05T18:56:47.596Z,11.60
2022-11-05T18:59:38.709Z,11.50
2022-11-05T19:02:09.072Z,11.20
2022-11-05T19:04:39.244Z,11.10
2022-11-05T19:07:08.777Z,11.00
2022-11-05T19:09:38.870Z,10.90
2022-11-05T19:12:08.189Z,11.00
2022-11-05T19:14:37.376Z,11.20
2022-11-05T19:17:05.854Z,11.10
2022-11-05T19:19:34.223Z,11.30
2022-11-05T19:22:02.661Z,11.10
2022-11-05T19:24:31.264Z,11.00
2022-11-05T19:26:59.611Z,11.00
2022-11-05T19:29:28.176Z,11.10
2022-11-05T19:31:56.762Z,11.10
2022-11-05T19:34:25.125Z,11.20
2022-11-05T19:36:53.533Z,11.00
2022-11-05T19:39:22.020Z,10.80
2022-11-05T19:41:50.898Z,10.60
2022-11-05T19:44:19.271Z,10.80
2022-11-05T19:46:47.676Z,10.90
2022-11-05T19:49:16.044Z,10.80
2022-11-05T19:51:44.438Z,10.60
2022-11-05T19:54:13.130Z,10.50
2022-11-05T19:56:41.510Z,10.70
2022-11-05T19:59:09.873Z,10.30
2022-11-05T20:01:39.016Z,10.40
2022-11-05T20:04:07.726Z,10.40
2022-11-05T20:06:40.844Z,10.50
2022-11-05T20:09:21.710Z,10.50
2022-11-05T20:12:00.167Z,10.60
2022-11-05T20:14:28.676Z,10.70
2022-11-05T20:16:57.239Z,10.80
2022-11-05T20:19:25.753Z,10.80
2022-11-05T20:21:54.189Z,10.80
2022-11-05T20:24:25.504Z,10.90
2022-11-05T20:26:56.302Z,10.70
2022-11-05T20:29:30.567Z,10.60
2022-11-05T20:31:59.112Z,10.30
2022-11-05T20:34:29.263Z,10.50
2022-11-05T20:36:57.639Z,10.60
2022-11-05T20:39:26.050Z,10.90
2022-11-05T20:41:54.594Z,10.70
2022-11-05T20:44:23.021Z,10.80
2022-11-05T20:46:51.449Z,11.20
2022-11-05T20:49:25.002Z,11.00
2022-11-05T20:51:54.347Z,11.10
2022-11-05T20:54:22.868Z,11.20
2022-11-05T20:56:51.469Z,11.40
2022-11-05T20:59:20.453Z,11.60
2022-11-05T21:01:49.055Z,11.40
2022-11-05T21:04:17.517Z,11.30
2022-11-05T21:06:45.957Z,11.50
2022-11-05T21:09:14.353Z,11.60
2022-11-05T21:12:01.378Z,11.60
2022-11-05T21:14:29.743Z,11.30
2022-11-05T21:16:58.160Z,11.30
2022-11-05T21:19:26.607Z,11.30
2022-11-05T21:21:54.957Z,11.10
2022-11-05T21:24:23.361Z,11.30
2022-11-05T21:26:52.288Z,11.30
2022-11-05T21:29:20.961Z,11.50
2022-11-05T21:31:49.337Z,11.70
2022-11-05T21:34:19.786Z,11.60
2022-11-05T21:36:48.213Z,11.40
2022-11-05T21:39:16.588Z,11.30
2022-11-05T21:41:45.161Z,11.40
2022-11-05T21:44:13.747Z,11.50
2022-11-05T21:46:42.275Z,11.40
2022-11-05T21:49:11.137Z,11.60
2022-11-05T21:51:57.660Z,11.80
2022-11-05T21:54:44.573Z,11.70
2022-11-05T21:57:37.462Z,11.60
2022-11-05T22:00:09.236Z,11.50
2022-11-05T22:02:37.817Z,11.40
2022-11-05T22:05:07.752Z,11.40
2022-11-05T22:07:38.680Z,11.30
2022-11-05T22:10:15.584Z,11.30
2022-11-05T22:12:45.767Z,11.50
2022-11-05T22:15:14.286Z,11.70
2022-11-05T22:17:46.479Z,11.70
2022-11-05T22:20:15.691Z,11.80
2022-11-05T22:22:44.487Z,12.10
2022-11-05T22:25:14.196Z,12.10
2022-11-05T22:27:44.643Z,12.00
2022-11-05T22:30:14.404Z,12.00
2022-11-05T22:32:42.838Z,12.00
2022-11-05T22:35:11.592Z,11.80
2022-11-05T22:37:39.957Z,11.90
2022-11-05T22:40:08.740Z,11.80
2022-11-05T22:42:37.310Z,11.40
2022-11-05T22:45:06.208Z,11.50
2022-11-05T22:47:34.568Z,11.60
2022-11-05T22:50:03.767Z,11.40
2022-11-05T22:52:33.461Z,11.20
2022-11-05T22:55:04.447Z,11.00
2022-11-05T22:57:32.865Z,11.00
2022-11-05T23:00:01.310Z,10.90
2022-11-05T23:02:29.922Z,10.80
2022-11-05T23:04:58.433Z,10.70
2022-11-05T23:07:45.300Z,10.40
2022-11-05T23:10:32.143Z,10.30
2022-11-05T23:13:00.724Z,10.30
2022-11-05T23:15:47.236Z,10.20
2022-11-05T23:18:34.110Z,10.30
2022-11-05T23:21:23.033Z,10.20
2022-11-05T23:24:06.979Z,10.20
2022-11-05T23:26:52.520Z,10.30
2022-11-05T23:29:24.567Z,10.30
2022-11-05T23:32:11.555Z,10.20
2022-11-05T23:34:40.533Z,10.40
2022-11-05T23:37:28.142Z,10.20
2022-11-05T23:39:56.589Z,10.20
2022-11-05T23:42:43.441Z,10.20
2022-11-05T23:45:30.765Z,10.10
2022-11-05T23:48:17.213Z,10.20
2022-11-05T23:50:57.067Z,10.40
2022-11-05T23:53:25.968Z,10.00
2022-11-05T23:55:54.681Z,9.80
2022-11-05T23:58:23.076Z,9.90
